メインページ
METAR-TAF:

METAR-TAF

空港 :

デトロイト・メトロポリタン・ウェイン・カウンティ空港

デトロイト, ミシガン州, アメリカ合衆国

緯度: 42-13-53N, 経度: 083-19-51W, 海抜: 194m

現時点の気象観測

当レポートは24分前の18:19(UTC)に作成
南西の風 15kt、最大22ktの突風を伴う
気温 33°C
湿度 59%
気圧 1012 hPa
視程: 11.3km
高度3500ftの千切れ雲あり
高度25000ftの千切れ雲あり
近辺で激しい雷雨

METAR: KDTW 191819Z 23015G22KT 7SM VCTS BKN035 BKN250 33/24 A2987 RMK AO2 LTG DSNT W AND NW CB DSNT W-N MOV SE T03280244

時間: 14:43 (18:43 UTC)

予報

当レポートは1時間10分前の17:33(UTC)に作成
予報は19日の 18時(UTC)から 20日の 24時(UTC)まで有効
南西の風 14kt、最大21ktの突風を伴う
視程: 10km
高度2500ftの千切れ雲あり
高度25000ftの千切れ雲あり
19日の 18時(UTC)から 19日の 22時(UTC)まで一時的に
視程: 3.2km
高度2500ftの千切れ雲あり, 積乱雲.
激しい雷雨, 雨
20日の 0100時(UTC)から
南西の風 9kt
視程: 10km
高度2500ftの雲は散在している
高度25000ftの雲は散在している
20日の 0900時(UTC)から
南西の風 9kt
視程: 9.7km
高度2500ftの雲は散在している
高度25000ftの雲は散在している
20日の 1300時(UTC)から
南西の風 9kt
視程: 10km
高度3500ftの雲は散在している
高度25000ftの雲は散在している
20日の 1800時(UTC)から
南西の風 12kt、最大20ktの突風を伴う
視程: 10km
高度4500ftの千切れ雲あり
確率 30%
20日の 18時(UTC)から 20日の 24時(UTC)まで
視程: 3.2km
高度3000ftの曇り, 積乱雲.
激しい雷雨, 雨

TAF: KDTW 191733Z 1918/2024 23014G21KT P6SM BKN025 BKN250 TEMPO 1918/1922 2SM TSRA BKN025CB FM200100 22009KT P6SM SCT025 SCT250 FM200900 22009KT 6SM BR SCT025 SCT250 FM201300 22009KT P6SM SCT035 SCT250 FM201800 22012G20KT P6SM BKN045 PROB30 2018/2024 2SM TSRA OVC030CB

4,000以上の空港の気象観測と天気予報(METAR報とTAF報)

利用可能な観測所は地図上に黄色い丸と赤い丸で示す。

丸の上にカーソルを重ねると観測所名を参照できる。

次にクリックすると気象観測と天気予報を参照できる。

マップの切り替え:黒色「×」印の緑ボタンをクリックして拡大、「-」印の緑ボタンをクリックして縮小、緑色の三角印をクリックして隣りの地図に切り替え


METAR-TAF: